logo
Search for airport 
image banner adimage banner adimage banner ad
image banner ad

VCBI - Bandaranaike International Airport Colombo

Located in Colombo, Sri Lanka

ICAO - VCBI, IATA - CMB

Data provided by Airmate  

General information

Coordinates: N7°10'49" E79°53'7"
Elevation is 29 feet MSL.
 
View others Airports in Western Province

Operational data

Special qualification required
Current time UTC:
Current local time:
Weather
METAR: VCBI 131810Z 07003KT 9000 SCT017 26/25 Q1010 NOSIG
TAF: TAF VCBI 131700Z 1318/1424 VRB05KT 9999 SCT017 TX35/1307Z TN25/1400Z BECMG 1406/1408 28012KT PROB40 TEMPO 1409/1416 VRB20G30KT 7000 -TSRA/SHRA FEW012 SCT016 FEW019CB BECMG 1413/1415 VRB05KT
View NOTAMs / SUP AIP / TFR affecting this airport [VIEW]
Communications frequencies: [VIEW]

Runways:

RWY identifierQFULength (ft)Width (ft)SurfaceLDA (ft)
0438°10991148ASP
22218°10991148ASP

Airport contact information

Address: Colombo Sri Lanka

Satellite view of VCBI